createdAt,value
2022-09-28T00:00:11.374Z,8.70
2022-09-28T00:02:41.884Z,8.70
2022-09-28T00:05:25.811Z,8.70
2022-09-28T00:07:53.969Z,8.70
2022-09-28T00:10:47.443Z,8.70
2022-09-28T00:13:20.051Z,8.70
2022-09-28T00:15:54.758Z,8.70
2022-09-28T00:18:22.575Z,8.70
2022-09-28T00:21:00.049Z,8.70
2022-09-28T00:23:27.920Z,8.70
2022-09-28T00:25:55.733Z,8.70
2022-09-28T00:28:24.954Z,8.80
2022-09-28T00:30:56.815Z,8.80
2022-09-28T00:33:26.373Z,8.70
2022-09-28T00:35:58.651Z,8.80
2022-09-28T00:38:30.971Z,8.80
2022-09-28T00:41:02.076Z,8.70
2022-09-28T00:43:31.322Z,8.70
2022-09-28T00:46:04.127Z,8.70
2022-09-28T00:48:36.161Z,8.70
2022-09-28T00:51:16.957Z,8.70
2022-09-28T00:53:45.597Z,8.70
2022-09-28T00:56:19.014Z,8.70
2022-09-28T00:58:52.843Z,8.70
2022-09-28T01:01:20.820Z,8.70
2022-09-28T01:03:49.573Z,8.70
2022-09-28T01:06:21.312Z,8.60
2022-09-28T01:09:11.164Z,8.60
2022-09-28T01:11:51.577Z,8.50
2022-09-28T01:14:22.734Z,8.60
2022-09-28T01:16:58.855Z,8.50
2022-09-28T01:19:48.714Z,8.50
2022-09-28T01:22:39.808Z,8.50
2022-09-28T01:25:13.158Z,8.40
2022-09-28T01:27:46.909Z,8.40
2022-09-28T01:30:19.688Z,8.40
2022-09-28T01:32:54.770Z,8.40
2022-09-28T01:35:29.942Z,8.30
2022-09-28T01:38:17.502Z,8.30
2022-09-28T01:43:54.182Z,8.20
2022-09-28T01:46:24.656Z,8.20
2022-09-28T01:48:56.196Z,8.20
2022-09-28T01:51:37.779Z,8.10
2022-09-28T01:54:14.136Z,8.10
2022-09-28T01:56:47.473Z,8.10
2022-09-28T01:59:25.053Z,8.10
2022-09-28T02:02:10.110Z,8.10
2022-09-28T02:04:43.667Z,8.10
2022-09-28T02:07:17.403Z,8.10
2022-09-28T02:09:49.133Z,8.10
2022-09-28T02:12:21.980Z,8.10
2022-09-28T02:14:53.794Z,8.10
2022-09-28T02:17:22.032Z,8.10
2022-09-28T02:19:51.407Z,8.10
2022-09-28T02:22:26.469Z,8.10
2022-09-28T02:24:59.381Z,8.10
2022-09-28T02:27:36.013Z,8.20
2022-09-28T02:30:07.169Z,8.20
2022-09-28T02:32:47.749Z,8.20
2022-09-28T02:35:18.402Z,8.20
2022-09-28T02:37:49.985Z,8.20
2022-09-28T02:40:38.169Z,8.20
2022-09-28T02:43:16.204Z,8.20
2022-09-28T02:46:01.661Z,8.10
2022-09-28T02:49:00.055Z,8.10
2022-09-28T02:51:53.663Z,8.10
2022-09-28T02:54:37.649Z,8.00
2022-09-28T02:57:19.608Z,8.00
2022-09-28T02:59:58.620Z,8.00
2022-09-28T03:02:32.577Z,8.00
2022-09-28T03:05:17.366Z,8.00
2022-09-28T03:07:52.273Z,8.00
2022-09-28T03:10:26.712Z,8.00
2022-09-28T03:12:55.941Z,7.90
2022-09-28T03:15:26.463Z,7.90
2022-09-28T03:17:59.307Z,7.90
2022-09-28T03:20:28.144Z,7.90
2022-09-28T03:23:20.080Z,7.90
2022-09-28T03:25:44.222Z,7.90
2022-09-28T03:28:15.913Z,7.90
2022-09-28T03:30:43.860Z,8.00
2022-09-28T03:33:13.061Z,8.00
2022-09-28T03:35:40.861Z,7.90
2022-09-28T03:38:08.792Z,7.90
2022-09-28T03:40:36.734Z,7.90
2022-09-28T03:43:04.828Z,7.90
2022-09-28T03:45:33.189Z,7.80
2022-09-28T03:48:01.159Z,7.80
2022-09-28T03:50:30.373Z,7.80
2022-09-28T03:53:03.498Z,7.80
2022-09-28T03:55:31.315Z,7.70
2022-09-28T03:57:59.163Z,7.70
2022-09-28T04:00:27.905Z,7.70
2022-09-28T04:02:55.690Z,7.70
2022-09-28T04:05:23.530Z,7.70
2022-09-28T04:07:56.067Z,7.70
2022-09-28T04:10:23.997Z,7.70
2022-09-28T04:12:55.493Z,7.60
2022-09-28T04:15:23.615Z,7.60
2022-09-28T04:17:51.876Z,7.60
2022-09-28T04:20:19.702Z,7.50
2022-09-28T04:22:47.549Z,7.50
2022-09-28T04:25:16.888Z,7.50
2022-09-28T04:28:02.194Z,7.50
2022-09-28T04:30:30.129Z,7.50
2022-09-28T04:32:57.946Z,7.40
2022-09-28T04:35:38.572Z,7.40
2022-09-28T04:38:11.073Z,7.40
2022-09-28T04:40:40.333Z,7.40
2022-09-28T04:43:09.189Z,7.50
2022-09-28T04:45:39.848Z,7.40
2022-09-28T04:48:09.565Z,7.40
2022-09-28T04:50:37.406Z,7.40
2022-09-28T04:55:45.272Z,7.40
2022-09-28T04:58:13.172Z,7.40
2022-09-28T05:00:41.090Z,7.40
2022-09-28T05:03:09.026Z,7.40
2022-09-28T05:05:36.864Z,7.40
2022-09-28T05:08:04.758Z,7.30
2022-09-28T05:10:32.751Z,7.30
2022-09-28T05:16:02.988Z,7.30
2022-09-28T05:18:33.022Z,7.30
2022-09-28T05:21:01.635Z,7.30
2022-09-28T05:23:29.532Z,7.20
2022-09-28T05:26:03.012Z,7.20
2022-09-28T05:28:33.748Z,7.30
2022-09-28T05:31:08.857Z,7.30
2022-09-28T05:33:43.801Z,7.30
2022-09-28T05:36:12.111Z,7.20
2022-09-28T05:38:41.515Z,7.10
2022-09-28T05:41:09.513Z,7.10
2022-09-28T05:43:39.574Z,7.00
2022-09-28T05:46:25.182Z,7.00
2022-09-28T05:48:54.197Z,7.00
2022-09-28T05:51:24.579Z,7.00
2022-09-28T05:53:54.901Z,7.00
2022-09-28T05:56:22.896Z,7.00
2022-09-28T05:58:52.431Z,7.00
2022-09-28T06:01:20.529Z,7.00
2022-09-28T06:03:48.471Z,7.00
2022-09-28T06:06:16.327Z,7.00
2022-09-28T06:08:46.373Z,7.10
2022-09-28T06:11:14.477Z,7.10
2022-09-28T06:13:42.884Z,7.10
2022-09-28T06:16:22.457Z,7.10
2022-09-28T06:18:50.431Z,7.20
2022-09-28T06:21:18.421Z,7.10
2022-09-28T06:23:49.270Z,7.10
2022-09-28T06:26:17.981Z,7.10
2022-09-28T06:28:45.855Z,7.10
2022-09-28T06:31:23.696Z,7.20
2022-09-28T06:33:52.148Z,7.20
2022-09-28T06:36:20.853Z,7.30
2022-09-28T06:38:48.801Z,7.30
2022-09-28T06:41:17.154Z,7.40
2022-09-28T06:43:46.147Z,7.50
2022-09-28T06:46:15.705Z,7.50
2022-09-28T06:48:44.349Z,7.70
2022-09-28T06:51:12.488Z,7.80
2022-09-28T06:53:40.592Z,7.90
2022-09-28T06:56:10.654Z,7.90
2022-09-28T06:58:38.960Z,8.00
2022-09-28T07:01:07.251Z,8.10
2022-09-28T07:03:36.739Z,8.20
2022-09-28T07:06:04.884Z,8.30
2022-09-28T07:08:32.838Z,8.40
2022-09-28T07:11:01.337Z,8.50
2022-09-28T07:13:49.097Z,8.60
2022-09-28T07:16:19.625Z,8.70
2022-09-28T07:18:51.111Z,8.70
2022-09-28T07:21:28.074Z,8.80
2022-09-28T07:23:58.050Z,8.90
2022-09-28T07:26:29.513Z,9.00
2022-09-28T07:28:57.439Z,9.10
2022-09-28T07:31:31.646Z,9.20
2022-09-28T07:34:00.905Z,9.30
2022-09-28T07:36:32.109Z,9.40
2022-09-28T07:38:59.967Z,9.50
2022-09-28T07:41:34.586Z,9.60
2022-09-28T07:44:06.028Z,9.70
2022-09-28T07:46:41.422Z,9.70
2022-09-28T07:49:12.376Z,9.80
2022-09-28T07:51:47.251Z,9.90
2022-09-28T07:54:17.748Z,10.00
2022-09-28T07:56:48.139Z,10.00
2022-09-28T07:59:18.703Z,10.10
2022-09-28T08:01:49.432Z,10.20
2022-09-28T08:04:21.309Z,10.30
2022-09-28T08:06:50.041Z,10.30
2022-09-28T08:09:18.128Z,10.40
2022-09-28T08:11:46.606Z,10.40
2022-09-28T08:14:15.093Z,10.50
2022-09-28T08:16:49.583Z,10.60
2022-09-28T08:19:25.149Z,10.60
2022-09-28T08:21:52.069Z,10.60
2022-09-28T08:24:22.948Z,10.70
2022-09-28T08:26:52.186Z,10.70
2022-09-28T08:29:20.870Z,10.80
2022-09-28T08:31:50.274Z,10.80
2022-09-28T08:34:20.669Z,10.80
2022-09-28T08:36:50.096Z,10.90
2022-09-28T08:39:18.370Z,10.90
2022-09-28T08:41:50.537Z,11.00
2022-09-28T08:44:54.935Z,11.10
2022-09-28T08:47:43.150Z,11.10
2022-09-28T08:50:18.768Z,11.10
2022-09-28T08:52:53.497Z,11.10
2022-09-28T08:55:28.782Z,11.10
2022-09-28T08:58:02.154Z,11.10
2022-09-28T09:00:40.987Z,11.10
2022-09-28T09:03:31.503Z,11.20
2022-09-28T09:06:10.152Z,11.20
2022-09-28T09:08:54.498Z,11.30
2022-09-28T09:11:38.309Z,11.40
2022-09-28T09:14:28.577Z,11.50
2022-09-28T09:17:10.714Z,11.50
2022-09-28T09:20:01.988Z,11.50
2022-09-28T09:22:53.324Z,11.50
2022-09-28T09:25:28.125Z,11.60
2022-09-28T09:28:32.076Z,11.60
2022-09-28T09:31:11.233Z,11.70
2022-09-28T09:34:05.605Z,11.70
2022-09-28T09:36:43.391Z,11.60
2022-09-28T09:39:27.367Z,11.60
2022-09-28T09:42:45.207Z,11.50
2022-09-28T09:45:40.972Z,11.50
2022-09-28T09:48:13.534Z,11.40
2022-09-28T09:50:50.200Z,11.40
2022-09-28T09:53:27.044Z,11.40
2022-09-28T09:56:08.554Z,11.40
2022-09-28T10:01:43.140Z,11.40
2022-09-28T10:04:23.288Z,11.50
2022-09-28T10:07:00.904Z,11.50
2022-09-28T10:10:01.180Z,11.60
2022-09-28T10:12:31.054Z,11.70
2022-09-28T10:14:59.004Z,11.80
2022-09-28T10:17:36.759Z,11.80
2022-09-28T10:20:12.653Z,11.90
2022-09-28T10:23:28.687Z,11.90
2022-09-28T10:26:12.403Z,11.90
2022-09-28T10:28:50.922Z,11.90
2022-09-28T10:31:43.915Z,12.00
2022-09-28T10:34:51.042Z,12.00
2022-09-28T10:37:52.197Z,12.00
2022-09-28T10:46:16.598Z,12.10
2022-09-28T10:48:52.149Z,12.20
2022-09-28T10:51:21.564Z,12.30
2022-09-28T10:54:09.423Z,12.30
2022-09-28T10:56:38.513Z,12.30
2022-09-28T10:59:49.764Z,12.20
2022-09-28T11:02:44.326Z,12.10
2022-09-28T11:05:22.302Z,12.10
2022-09-28T11:08:29.794Z,12.00
2022-09-28T11:14:42.137Z,12.20
2022-09-28T11:17:22.408Z,12.30
2022-09-28T11:19:56.864Z,12.40
2022-09-28T11:22:34.542Z,12.40
2022-09-28T11:25:39.428Z,12.40
2022-09-28T11:28:07.319Z,12.40
2022-09-28T11:30:57.412Z,12.30
2022-09-28T11:33:40.847Z,12.30
2022-09-28T11:36:23.959Z,12.30
2022-09-28T11:39:01.231Z,12.30
2022-09-28T11:42:07.398Z,12.20
2022-09-28T11:44:47.270Z,12.20
2022-09-28T11:48:09.871Z,12.20
2022-09-28T11:51:11.140Z,12.10
2022-09-28T11:53:46.263Z,12.10
2022-09-28T11:56:19.722Z,12.10
2022-09-28T11:58:56.328Z,12.10
2022-09-28T12:01:37.616Z,12.00
2022-09-28T12:04:18.138Z,12.00
2022-09-28T12:06:53.838Z,12.00
2022-09-28T12:09:49.084Z,12.10
2022-09-28T12:12:38.531Z,12.10
2022-09-28T12:15:42.276Z,12.20
2022-09-28T12:18:34.494Z,12.30
2022-09-28T12:21:28.372Z,12.50
2022-09-28T12:24:12.828Z,12.60
2022-09-28T12:29:44.388Z,12.90
2022-09-28T12:32:26.343Z,13.10
2022-09-28T12:38:02.389Z,13.30
2022-09-28T12:40:54.083Z,13.40
2022-09-28T12:43:57.107Z,13.30
2022-09-28T12:46:43.443Z,13.30
2022-09-28T12:55:59.968Z,13.10
2022-09-28T12:58:44.761Z,13.10
2022-09-28T13:01:41.237Z,13.10
2022-09-28T13:04:58.541Z,13.00
2022-09-28T13:07:38.496Z,13.00
2022-09-28T13:10:18.543Z,13.00
2022-09-28T13:13:02.920Z,13.00
2022-09-28T13:15:42.454Z,13.00
2022-09-28T13:18:24.623Z,13.00
2022-09-28T13:21:07.168Z,13.00
2022-09-28T13:23:44.117Z,13.00
2022-09-28T13:26:23.778Z,13.00
2022-09-28T13:29:01.095Z,13.00
2022-09-28T13:31:49.512Z,13.00
2022-09-28T13:34:22.622Z,12.90
2022-09-28T13:37:13.471Z,12.90
2022-09-28T13:39:53.156Z,12.90
2022-09-28T13:42:52.011Z,12.90
2022-09-28T13:45:58.926Z,12.90
2022-09-28T13:48:54.156Z,12.90
2022-09-28T13:51:41.641Z,12.90
2022-09-28T13:54:50.302Z,12.90
2022-09-28T13:57:25.245Z,13.00
2022-09-28T14:00:03.939Z,13.00
2022-09-28T14:03:15.557Z,13.00
2022-09-28T14:05:57.314Z,13.00
2022-09-28T14:08:31.985Z,12.90
2022-09-28T14:11:50.727Z,12.90
2022-09-28T14:14:32.351Z,12.90
2022-09-28T14:17:50.402Z,12.90
2022-09-28T14:20:26.521Z,12.90
2022-09-28T14:23:34.198Z,12.90
2022-09-28T14:26:31.519Z,12.90
2022-09-28T14:29:11.943Z,12.90
2022-09-28T14:31:47.068Z,12.90
2022-09-28T14:34:42.006Z,12.90
2022-09-28T14:37:41.246Z,12.90
2022-09-28T14:40:36.868Z,12.80
2022-09-28T14:43:31.600Z,12.80
2022-09-28T14:46:42.611Z,12.80
2022-09-28T14:49:51.191Z,12.80
2022-09-28T14:52:41.558Z,12.80
2022-09-28T14:55:25.356Z,12.70
2022-09-28T14:58:05.456Z,12.70
2022-09-28T15:00:46.134Z,12.60
2022-09-28T15:03:24.440Z,12.60
2022-09-28T15:05:58.586Z,12.60
2022-09-28T15:08:42.510Z,12.60
2022-09-28T15:11:30.457Z,12.60
2022-09-28T15:14:10.829Z,12.60
2022-09-28T15:16:53.403Z,12.70
2022-09-28T15:19:37.188Z,12.70
2022-09-28T15:22:16.873Z,12.80
2022-09-28T15:24:47.126Z,12.90
2022-09-28T15:27:19.022Z,12.90
2022-09-28T15:30:07.064Z,13.00
2022-09-28T15:32:38.319Z,13.00
2022-09-28T15:35:17.071Z,13.10
2022-09-28T15:37:46.393Z,13.10
2022-09-28T15:40:19.524Z,13.00
2022-09-28T15:42:47.660Z,12.90
2022-09-28T15:45:30.731Z,12.90
2022-09-28T15:48:25.222Z,12.80
2022-09-28T15:50:59.406Z,12.70
2022-09-28T15:53:30.051Z,12.60
2022-09-28T15:56:12.140Z,12.60
2022-09-28T15:59:00.621Z,12.50
2022-09-28T16:02:08.443Z,12.50
2022-09-28T16:04:54.146Z,12.50
2022-09-28T16:07:38.395Z,12.40
2022-09-28T16:10:34.481Z,12.30
2022-09-28T16:13:17.799Z,12.30
2022-09-28T16:15:49.667Z,12.20
2022-09-28T16:18:35.612Z,12.10
2022-09-28T16:21:35.385Z,12.10
2022-09-28T16:24:03.378Z,12.00
2022-09-28T16:27:00.700Z,12.00
2022-09-28T16:29:39.948Z,12.00
2022-09-28T16:32:41.911Z,12.00
2022-09-28T16:35:45.484Z,11.90
2022-09-28T16:38:30.019Z,11.90
2022-09-28T16:41:11.027Z,11.90
2022-09-28T16:44:17.898Z,11.90
2022-09-28T16:46:47.366Z,11.90
2022-09-28T16:49:28.256Z,11.80
2022-09-28T16:51:56.132Z,11.80
2022-09-28T16:54:43.222Z,11.80
2022-09-28T16:57:13.462Z,11.80
2022-09-28T16:59:52.410Z,11.80
2022-09-28T17:02:45.818Z,11.70
2022-09-28T17:07:48.725Z,11.70
2022-09-28T17:10:30.426Z,11.70
2022-09-28T17:13:07.379Z,11.70
2022-09-28T17:15:57.686Z,11.70
2022-09-28T17:18:27.013Z,11.60
2022-09-28T17:21:00.944Z,11.60
2022-09-28T17:23:29.470Z,11.60
2022-09-28T17:37:13.805Z,11.60
2022-09-28T17:40:02.303Z,11.50
2022-09-28T17:43:16.350Z,11.50
2022-09-28T17:48:46.117Z,11.50
2022-09-28T17:54:53.341Z,11.50
2022-09-28T17:57:30.055Z,11.50
2022-09-28T18:00:08.830Z,11.50
2022-09-28T18:05:24.898Z,11.40
2022-09-28T18:07:55.595Z,11.50
2022-09-28T18:10:26.259Z,11.50
2022-09-28T18:12:56.897Z,11.50
2022-09-28T18:15:24.833Z,11.50
2022-09-28T18:17:54.952Z,11.50
2022-09-28T18:20:24.262Z,11.50
2022-09-28T18:22:55.866Z,11.50
2022-09-28T18:25:23.836Z,11.60
2022-09-28T18:27:53.045Z,11.50
2022-09-28T18:30:24.388Z,11.50
2022-09-28T18:32:52.325Z,11.50
2022-09-28T18:35:23.236Z,11.50
2022-09-28T18:37:53.600Z,11.50
2022-09-28T18:40:36.896Z,11.50
2022-09-28T18:43:05.160Z,11.50
2022-09-28T18:45:33.106Z,11.50
2022-09-28T18:48:01.067Z,11.50
2022-09-28T18:50:29.247Z,11.50
2022-09-28T18:53:17.692Z,11.50
2022-09-28T18:55:49.752Z,11.50
2022-09-28T18:58:47.193Z,11.40
2022-09-28T19:01:31.067Z,11.40
2022-09-28T19:04:26.499Z,11.40
2022-09-28T19:07:08.075Z,11.40
2022-09-28T19:09:37.759Z,11.40
2022-09-28T19:12:06.288Z,11.40
2022-09-28T19:14:34.227Z,11.40
2022-09-28T19:17:02.230Z,11.40
2022-09-28T19:19:30.295Z,11.40
2022-09-28T19:21:58.788Z,11.40
2022-09-28T19:24:27.508Z,11.30
2022-09-28T19:27:00.120Z,11.30
2022-09-28T19:29:33.197Z,11.30
2022-09-28T19:32:03.590Z,11.20
2022-09-28T19:34:31.546Z,11.10
2022-09-28T19:37:15.480Z,11.10
2022-09-28T19:39:43.476Z,11.00
2022-09-28T19:42:13.078Z,10.90
2022-09-28T19:44:41.153Z,10.80
2022-09-28T19:47:16.067Z,10.60
2022-09-28T19:49:44.045Z,10.60
2022-09-28T19:52:16.954Z,10.50
2022-09-28T19:54:55.727Z,10.40
2022-09-28T19:57:25.891Z,10.40
2022-09-28T20:00:02.090Z,10.40
2022-09-28T20:02:37.906Z,10.30
2022-09-28T20:05:06.409Z,10.30
2022-09-28T20:07:37.969Z,10.30
2022-09-28T20:10:06.687Z,10.30
2022-09-28T20:12:35.898Z,10.30
2022-09-28T20:15:03.965Z,10.30
2022-09-28T20:17:33.282Z,10.30
2022-09-28T20:20:02.686Z,10.30
2022-09-28T20:22:30.945Z,10.30
2022-09-28T20:25:02.682Z,10.30
2022-09-28T20:27:30.568Z,10.30
2022-09-28T20:30:00.587Z,10.30
2022-09-28T20:32:36.127Z,10.20
2022-09-28T20:35:06.321Z,10.20
2022-09-28T20:37:36.090Z,10.10
2022-09-28T20:40:08.041Z,10.10
2022-09-28T20:42:38.509Z,10.00
2022-09-28T20:45:10.793Z,10.00
2022-09-28T20:47:38.836Z,10.10
2022-09-28T20:50:07.881Z,10.10
2022-09-28T20:52:36.023Z,10.10
2022-09-28T20:55:03.965Z,10.00
2022-09-28T20:57:32.044Z,10.00
2022-09-28T20:59:59.931Z,9.90
2022-09-28T21:02:29.181Z,9.80
2022-09-28T21:04:57.038Z,9.80
2022-09-28T21:07:25.106Z,9.80
2022-09-28T21:09:53.600Z,9.70
2022-09-28T21:12:21.427Z,9.70
2022-09-28T21:14:49.225Z,9.70
2022-09-28T21:17:17.114Z,9.60
2022-09-28T21:19:46.336Z,9.60
2022-09-28T21:22:19.909Z,9.50
2022-09-28T21:24:47.736Z,9.40
2022-09-28T21:27:15.665Z,9.40
2022-09-28T21:29:43.565Z,9.30
2022-09-28T21:32:11.447Z,9.30
2022-09-28T21:34:39.370Z,9.30
2022-09-28T21:37:08.621Z,9.30
2022-09-28T21:39:36.532Z,9.30
2022-09-28T21:42:04.503Z,9.30
2022-09-28T21:44:32.342Z,9.40
2022-09-28T21:47:00.230Z,9.40
2022-09-28T21:49:35.759Z,9.50
2022-09-28T21:52:04.629Z,9.50
2022-09-28T21:54:41.775Z,9.60
2022-09-28T21:57:10.487Z,9.60
2022-09-28T21:59:38.420Z,9.60
2022-09-28T22:02:07.271Z,9.70
2022-09-28T22:04:35.093Z,9.70
2022-09-28T22:07:03.193Z,9.70
2022-09-28T22:09:31.063Z,9.60
2022-09-28T22:12:00.390Z,9.60
2022-09-28T22:14:28.290Z,9.50
2022-09-28T22:16:56.269Z,9.50
2022-09-28T22:19:24.109Z,9.50
2022-09-28T22:21:51.941Z,9.60
2022-09-28T22:24:19.924Z,9.50
2022-09-28T22:26:48.053Z,9.50
2022-09-28T22:29:17.937Z,9.50
2022-09-28T22:34:15.726Z,9.50
2022-09-28T22:36:44.138Z,9.40
2022-09-28T22:39:12.045Z,9.40
2022-09-28T22:41:39.913Z,9.40
2022-09-28T22:44:07.973Z,9.30
2022-09-28T22:46:37.252Z,9.40
2022-09-28T22:49:05.256Z,9.30
2022-09-28T22:51:33.180Z,9.30
2022-09-28T22:54:01.143Z,9.30
2022-09-28T22:56:29.455Z,9.30
2022-09-28T22:58:57.394Z,9.30
2022-09-28T23:01:27.514Z,9.30
2022-09-28T23:03:57.942Z,9.30
2022-09-28T23:06:27.747Z,9.30
2022-09-28T23:08:55.766Z,9.30
2022-09-28T23:11:23.672Z,9.30
2022-09-28T23:13:52.484Z,9.30
2022-09-28T23:16:23.367Z,9.30
2022-09-28T23:18:51.381Z,9.30
2022-09-28T23:21:21.872Z,9.20
2022-09-28T23:23:54.364Z,9.20
2022-09-28T23:26:24.277Z,9.10
2022-09-28T23:28:52.994Z,9.10
2022-09-28T23:31:23.214Z,9.10
2022-09-28T23:33:51.496Z,9.10
2022-09-28T23:36:20.657Z,9.10
2022-09-28T23:38:48.605Z,9.10
2022-09-28T23:41:16.473Z,9.10
2022-09-28T23:43:44.349Z,9.00
2022-09-28T23:46:12.465Z,9.00
2022-09-28T23:48:40.483Z,9.00
2022-09-28T23:51:08.611Z,8.90
2022-09-28T23:53:38.196Z,8.90
2022-09-28T23:56:06.547Z,8.80
2022-09-28T23:58:34.423Z,8.80
